VTSGVTSM

Guest
Details From VTSG - Krabi
To VTSM - Samui
Flight Number -
Tags generated
Created
Modified
Stats Distance 108 nm / 200 km
Max Altitude 0 ft / 0 m
Waypoints 3
Social Downloads 1
Likes 0
Share VATSIM

Download

Looking for another format? Having issues loading an existing format? Contact us
Advertisement - Login to hide

Notes

Basic altitude profile: - Ascent Rate: 2500ft/min - Ascent Speed: 250kts - Cruise Altitude: 35000ft - Cruise Speed: 420kts - Descent Rate: 1500ft/min - Descent Speed: 250kts Options: - Use NATs: yes - Use PACOTS: yes - Use low airways: yes - Use high airways: yes

Route

VTSG SMU VTSM

ID Type Via Altitude Latitude Longitude Leg Dist Tot Dist Heading (true) Name
O VTSG APT - 0 ft / 0 m 8.09598˚ 98.98876˚ - 0 nm - Krabi
SMU VOR - 0 ft / 0 m 9.54708˚ 100.06174˚ 107 nm 107 nm 36° / 36° SAMUI VOR-DME
O VTSM APT - 0 ft / 0 m 9.54794˚ 100.06246˚ 0 nm 108 nm 39° / 39° Samui

Altitude Profile

Advertisement - Login to hide

VTSG

Details ICAO VTSG (KBV)
Name Krabi
Region Thailand
Timezone Asia/Bangkok (UTC+7.0)
Stats Elevation 82 ft / 25 m (AMSL)
Location 8.095977° 98.988763°
Runways 1
Magnetic Variation 0.388° W

METAR

VTSG 110900Z 02006KT 340V040 9999 FEW020 32/21 Q1009

Decode

TAF

TAF AMD VTSG 110500Z 1106/1206 04008KT 9000 FEW020 PROB40 TEMPO 1108/1112 VRB10G20KT 3000 TSRA FEW018CB SCT020 BKN100 BECMG 1118/1120 00000KT 4000 BR BECMG 1200/1202 04006KT 9999 NSW

Decode

Departure Runways

ID Width Length Bearing (true) Bearing (mag) Surface Threshold Offset Overrun Length
14 148 ft / 45 m 9,880 ft / 3,012 m 140.79° 141.18° Asphalt 0 ft / 0 m 197 ft / 60 m
32 148 ft / 45 m 9,880 ft / 3,012 m 320.80° 321.19° Asphalt 0 ft / 0 m 197 ft / 60 m

VTSM

Details ICAO VTSM (USM)
Name Samui
Region Thailand
Timezone Asia/Bangkok (UTC+7.0)
Stats Elevation 64 ft / 20 m (AMSL)
Location 9.547939° 100.062457°
Runways 1
Magnetic Variation 0.385° W

METAR

VTSM 110930Z 09005KT 9999 FEW020 30/22 Q1011

Decode

TAF

TAF VTSM 110500Z 1106/1206 10008KT 9999 FEW020

Decode

Destination Runways

ID Width Length Bearing (true) Bearing (mag) Surface Threshold Offset Overrun Length
17 148 ft / 45 m 6,795 ft / 2,071 m 174.49° 174.87° Asphalt 853 ft / 260 m 148 ft / 45 m
35 148 ft / 45 m 6,795 ft / 2,071 m 354.49° 354.87° Asphalt 1,109 ft / 338 m 197 ft / 60 m